sensor_id;sensor_type;location;lat;lon;timestamp;pressure;altitude;pressure_sealevel;temperature;humidity
36192;BME280;22233;42.708;23.360;2023-09-30T00:00:36;95837.41;;;17.99;53.41
36192;BME280;22233;42.708;23.360;2023-09-30T00:03:02;95850.78;;;18.28;52.02
36192;BME280;22233;42.708;23.360;2023-09-30T00:05:27;95840.69;;;18.32;51.70
36192;BME280;22233;42.708;23.360;2023-09-30T00:07:53;95845.28;;;18.28;52.19
36192;BME280;22233;42.708;23.360;2023-09-30T00:10:18;95841.72;;;18.12;52.33
36192;BME280;22233;42.708;23.360;2023-09-30T00:12:43;95845.31;;;18.00;52.82
36192;BME280;22233;42.708;23.360;2023-09-30T00:15:10;95840.44;;;17.93;53.21
36192;BME280;22233;42.708;23.360;2023-09-30T00:17:36;95831.34;;;17.52;53.09
36192;BME280;22233;42.708;23.360;2023-09-30T00:20:01;95838.97;;;17.84;52.90
36192;BME280;22233;42.708;23.360;2023-09-30T00:22:29;95839.78;;;17.72;53.03
36192;BME280;22233;42.708;23.360;2023-09-30T00:24:54;95834.44;;;17.63;53.00
36192;BME280;22233;42.708;23.360;2023-09-30T00:27:20;95831.03;;;17.82;53.27
36192;BME280;22233;42.708;23.360;2023-09-30T00:29:45;95840.06;;;17.83;53.26
36192;BME280;22233;42.708;23.360;2023-09-30T00:32:12;95835.31;;;18.08;52.90
36192;BME280;22233;42.708;23.360;2023-09-30T00:34:37;95819.09;;;18.19;52.55
36192;BME280;22233;42.708;23.360;2023-09-30T00:37:03;95821.78;;;18.31;52.39
36192;BME280;22233;42.708;23.360;2023-09-30T00:39:28;95819.75;;;18.28;52.68
36192;BME280;22233;42.708;23.360;2023-09-30T00:41:58;95825.41;;;18.35;52.58
36192;BME280;22233;42.708;23.360;2023-09-30T00:44:27;95825.72;;;18.46;52.19
36192;BME280;22233;42.708;23.360;2023-09-30T00:46:54;95839.19;;;18.19;52.64
36192;BME280;22233;42.708;23.360;2023-09-30T00:49:20;95836.19;;;18.40;52.83
36192;BME280;22233;42.708;23.360;2023-09-30T00:51:47;95801.50;;;18.35;52.21
36192;BME280;22233;42.708;23.360;2023-09-30T00:54:12;95812.75;;;18.46;52.17
36192;BME280;22233;42.708;23.360;2023-09-30T00:56:43;95829.97;;;18.59;52.37
36192;BME280;22233;42.708;23.360;2023-09-30T00:59:09;95822.47;;;18.88;51.31
36192;BME280;22233;42.708;23.360;2023-09-30T01:01:35;95815.63;;;18.66;52.06
36192;BME280;22233;42.708;23.360;2023-09-30T01:04:01;95833.19;;;18.93;51.74
36192;BME280;22233;42.708;23.360;2023-09-30T01:06:27;95812.22;;;18.72;51.51
36192;BME280;22233;42.708;23.360;2023-09-30T01:08:52;95818.53;;;18.89;51.41
36192;BME280;22233;42.708;23.360;2023-09-30T01:11:18;95799.91;;;18.82;51.29
36192;BME280;22233;42.708;23.360;2023-09-30T01:13:44;95815.09;;;18.92;51.87
36192;BME280;22233;42.708;23.360;2023-09-30T01:16:10;95816.78;;;18.81;51.72
36192;BME280;22233;42.708;23.360;2023-09-30T01:18:37;95816.66;;;18.77;53.39
36192;BME280;22233;42.708;23.360;2023-09-30T01:21:04;95812.88;;;18.82;53.42
36192;BME280;22233;42.708;23.360;2023-09-30T01:23:33;95819.97;;;18.83;52.66
36192;BME280;22233;42.708;23.360;2023-09-30T01:28:29;95829.66;;;18.92;52.19
36192;BME280;22233;42.708;23.360;2023-09-30T01:30:55;95830.41;;;18.77;52.15
36192;BME280;22233;42.708;23.360;2023-09-30T01:33:21;95819.59;;;18.68;53.69
36192;BME280;22233;42.708;23.360;2023-09-30T01:35:47;95810.38;;;18.76;53.01
36192;BME280;22233;42.708;23.360;2023-09-30T01:38:13;95814.63;;;18.74;53.21
36192;BME280;22233;42.708;23.360;2023-09-30T01:40:38;95821.13;;;18.98;52.03
36192;BME280;22233;42.708;23.360;2023-09-30T01:43:04;95815.78;;;18.89;52.13
36192;BME280;22233;42.708;23.360;2023-09-30T01:45:29;95816.06;;;18.68;53.20
36192;BME280;22233;42.708;23.360;2023-09-30T01:47:54;95820.72;;;18.80;52.23
36192;BME280;22233;42.708;23.360;2023-09-30T01:50:20;95812.22;;;18.72;52.69
36192;BME280;22233;42.708;23.360;2023-09-30T01:52:45;95817.31;;;18.86;52.41
36192;BME280;22233;42.708;23.360;2023-09-30T01:55:11;95821.16;;;18.82;52.30
36192;BME280;22233;42.708;23.360;2023-09-30T01:57:36;95810.38;;;18.76;52.12
36192;BME280;22233;42.708;23.360;2023-09-30T02:00:02;95814.00;;;18.96;51.73
36192;BME280;22233;42.708;23.360;2023-09-30T02:02:27;95812.16;;;18.85;53.02
36192;BME280;22233;42.708;23.360;2023-09-30T02:04:53;95818.00;;;18.99;52.34
36192;BME280;22233;42.708;23.360;2023-09-30T02:07:18;95813.38;;;19.03;51.52
36192;BME280;22233;42.708;23.360;2023-09-30T02:09:44;95818.00;;;18.99;51.21
36192;BME280;22233;42.708;23.360;2023-09-30T02:12:10;95819.44;;;18.93;51.46
36192;BME280;22233;42.708;23.360;2023-09-30T02:14:35;95805.22;;;18.91;51.49
36192;BME280;22233;42.708;23.360;2023-09-30T02:17:00;95815.72;;;18.85;52.48
36192;BME280;22233;42.708;23.360;2023-09-30T02:19:26;95815.72;;;18.85;51.69
36192;BME280;22233;42.708;23.360;2023-09-30T02:21:52;95819.34;;;18.73;51.94
36192;BME280;22233;42.708;23.360;2023-09-30T02:24:18;95805.94;;;18.56;51.98
36192;BME280;22233;42.708;23.360;2023-09-30T02:26:43;95821.56;;;18.68;52.10
36192;BME280;22233;42.708;23.360;2023-09-30T02:29:09;95809.22;;;18.62;51.36
36192;BME280;22233;42.708;23.360;2023-09-30T02:31:34;95810.22;;;18.69;52.73
36192;BME280;22233;42.708;23.360;2023-09-30T02:34:00;95824.22;;;18.64;51.69
36192;BME280;22233;42.708;23.360;2023-09-30T02:36:28;95822.78;;;18.54;52.09
36192;BME280;22233;42.708;23.360;2023-09-30T02:38:54;95809.22;;;18.46;52.50
36192;BME280;22233;42.708;23.360;2023-09-30T02:41:19;95800.19;;;18.45;52.05
36192;BME280;22233;42.708;23.360;2023-09-30T02:43:45;95816.59;;;18.42;51.76
36192;BME280;22233;42.708;23.360;2023-09-30T02:46:11;95815.75;;;18.25;52.01
36192;BME280;22233;42.708;23.360;2023-09-30T02:48:37;95815.34;;;18.11;51.64
36192;BME280;22233;42.708;23.360;2023-09-30T02:51:03;95806.56;;;17.49;53.74
36192;BME280;22233;42.708;23.360;2023-09-30T02:53:28;95810.81;;;17.74;53.18
36192;BME280;22233;42.708;23.360;2023-09-30T02:55:53;95816.03;;;17.92;52.57
36192;BME280;22233;42.708;23.360;2023-09-30T02:58:23;95818.47;;;18.09;52.28
36192;BME280;22233;42.708;23.360;2023-09-30T03:00:48;95803.25;;;17.43;54.18
36192;BME280;22233;42.708;23.360;2023-09-30T03:03:14;95810.13;;;17.37;54.03
36192;BME280;22233;42.708;23.360;2023-09-30T03:05:39;95816.38;;;17.50;53.76
36192;BME280;22233;42.708;23.360;2023-09-30T03:08:05;95815.47;;;17.46;54.09
36192;BME280;22233;42.708;23.360;2023-09-30T03:10:30;95815.38;;;17.42;54.80
36192;BME280;22233;42.708;23.360;2023-09-30T03:12:56;95815.28;;;17.26;54.31
36192;BME280;22233;42.708;23.360;2023-09-30T03:15:27;95813.59;;;17.22;55.28
36192;BME280;22233;42.708;23.360;2023-09-30T03:17:52;95811.97;;;17.33;54.75
36192;BME280;22233;42.708;23.360;2023-09-30T03:20:18;95821.66;;;17.55;54.78
36192;BME280;22233;42.708;23.360;2023-09-30T03:22:45;95829.16;;;17.58;54.31
36192;BME280;22233;42.708;23.360;2023-09-30T03:25:16;95826.88;;;17.60;53.93
36192;BME280;22233;42.708;23.360;2023-09-30T03:27:46;95821.53;;;17.51;54.58
36192;BME280;22233;42.708;23.360;2023-09-30T03:30:15;95821.25;;;17.69;55.33
36192;BME280;22233;42.708;23.360;2023-09-30T03:32:42;95814.25;;;17.84;55.87
36192;BME280;22233;42.708;23.360;2023-09-30T03:35:09;95822.88;;;17.98;54.51
36192;BME280;22233;42.708;23.360;2023-09-30T03:37:43;95794.22;;;17.83;53.87
36192;BME280;22233;42.708;23.360;2023-09-30T03:40:09;95806.44;;;17.86;54.37
36192;BME280;22233;42.708;23.360;2023-09-30T03:42:40;95815.88;;;18.01;54.42
36192;BME280;22233;42.708;23.360;2023-09-30T03:45:08;95817.22;;;18.07;54.50
36192;BME280;22233;42.708;23.360;2023-09-30T03:47:35;95816.75;;;17.89;54.41
36192;BME280;22233;42.708;23.360;2023-09-30T03:50:00;95819.88;;;18.03;54.56
36192;BME280;22233;42.708;23.360;2023-09-30T03:52:28;95811.13;;;18.13;53.76
36192;BME280;22233;42.708;23.360;2023-09-30T03:54:53;95814.38;;;18.03;54.22
36192;BME280;22233;42.708;23.360;2023-09-30T03:57:19;95818.31;;;18.18;53.84
36192;BME280;22233;42.708;23.360;2023-09-30T03:59:45;95804.28;;;18.07;53.25
36192;BME280;22233;42.708;23.360;2023-09-30T04:02:13;95814.47;;;18.07;53.02
36192;BME280;22233;42.708;23.360;2023-09-30T04:04:40;95813.13;;;18.01;53.47
36192;BME280;22233;42.708;23.360;2023-09-30T04:07:05;95821.75;;;17.99;53.87
36192;BME280;22233;42.708;23.360;2023-09-30T04:09:32;95823.84;;;17.77;53.80
36192;BME280;22233;42.708;23.360;2023-09-30T04:11:57;95826.03;;;17.84;53.88
36192;BME280;22233;42.708;23.360;2023-09-30T04:14:23;95827.63;;;17.85;53.16
36192;BME280;22233;42.708;23.360;2023-09-30T04:16:50;95834.78;;;17.62;54.28
36192;BME280;22233;42.708;23.360;2023-09-30T04:19:16;95826.13;;;17.47;54.36
36192;BME280;22233;42.708;23.360;2023-09-30T04:21:41;95817.22;;;17.26;55.02
36192;BME280;22233;42.708;23.360;2023-09-30T04:24:08;95824.09;;;17.20;55.01
36192;BME280;22233;42.708;23.360;2023-09-30T04:26:34;95828.66;;;17.28;54.75
36192;BME280;22233;42.708;23.360;2023-09-30T04:29:00;95827.47;;;17.01;55.19
36192;BME280;22233;42.708;23.360;2023-09-30T04:31:27;95839.22;;;16.89;56.46
36192;BME280;22233;42.708;23.360;2023-09-30T04:33:53;95844.72;;;17.01;56.18
36192;BME280;22233;42.708;23.360;2023-09-30T04:36:19;95842.44;;;17.03;55.85
36192;BME280;22233;42.708;23.360;2023-09-30T04:38:46;95846.88;;;16.95;56.07
36192;BME280;22233;42.708;23.360;2023-09-30T04:41:12;95844.47;;;16.82;56.34
36192;BME280;22233;42.708;23.360;2023-09-30T04:43:38;95849.47;;;16.80;56.60
36192;BME280;22233;42.708;23.360;2023-09-30T04:46:04;95847.66;;;16.71;56.05
36192;BME280;22233;42.708;23.360;2023-09-30T04:48:30;95848.53;;;16.51;57.24
36192;BME280;22233;42.708;23.360;2023-09-30T04:50:57;95824.06;;;16.33;57.09
36192;BME280;22233;42.708;23.360;2023-09-30T04:53:22;95849.09;;;16.32;57.82
36192;BME280;22233;42.708;23.360;2023-09-30T04:55:48;95843.22;;;16.21;57.77
36192;BME280;22233;42.708;23.360;2023-09-30T04:58:17;95846.63;;;16.06;58.16
36192;BME280;22233;42.708;23.360;2023-09-30T05:00:43;95846.19;;;16.16;58.48
36192;BME280;22233;42.708;23.360;2023-09-30T05:03:08;95850.31;;;16.22;57.25
36192;BME280;22233;42.708;23.360;2023-09-30T05:05:33;95850.97;;;16.19;57.69
36192;BME280;22233;42.708;23.360;2023-09-30T05:08:00;95865.19;;;16.33;58.16
36192;BME280;22233;42.708;23.360;2023-09-30T05:10:26;95857.34;;;16.56;57.54
36192;BME280;22233;42.708;23.360;2023-09-30T05:12:51;95857.91;;;16.50;56.96
36192;BME280;22233;42.708;23.360;2023-09-30T05:15:20;95872.28;;;16.34;57.58
36192;BME280;22233;42.708;23.360;2023-09-30T05:17:46;95857.13;;;16.04;58.78
36192;BME280;22233;42.708;23.360;2023-09-30T05:20:12;95870.22;;;15.77;59.81
36192;BME280;22233;42.708;23.360;2023-09-30T05:22:38;95864.31;;;15.66;59.41
36192;BME280;22233;42.708;23.360;2023-09-30T05:25:06;95864.13;;;15.92;58.47
36192;BME280;22233;42.708;23.360;2023-09-30T05:27:32;95859.34;;;16.02;59.31
36192;BME280;22233;42.708;23.360;2023-09-30T05:29:58;95863.25;;;16.01;59.10
36192;BME280;22233;42.708;23.360;2023-09-30T05:32:23;95869.03;;;16.20;58.13
36192;BME280;22233;42.708;23.360;2023-09-30T05:34:51;95872.28;;;16.34;58.22
36192;BME280;22233;42.708;23.360;2023-09-30T05:37:18;95866.22;;;16.41;57.72
36192;BME280;22233;42.708;23.360;2023-09-30T05:39:47;95870.03;;;16.61;57.67
36192;BME280;22233;42.708;23.360;2023-09-30T05:42:14;95865.13;;;16.67;57.68
36192;BME280;22233;42.708;23.360;2023-09-30T05:44:40;95878.69;;;16.84;56.68
36192;BME280;22233;42.708;23.360;2023-09-30T05:47:06;95865.31;;;16.95;57.00
36192;BME280;22233;42.708;23.360;2023-09-30T05:49:31;95872.13;;;16.31;57.91
36192;BME280;22233;42.708;23.360;2023-09-30T05:51:57;95870.72;;;16.12;58.48
36192;BME280;22233;42.708;23.360;2023-09-30T05:54:22;95876.69;;;16.60;57.75
36192;BME280;22233;42.708;23.360;2023-09-30T05:56:48;95874.56;;;16.32;57.47
36192;BME280;22233;42.708;23.360;2023-09-30T05:59:14;95881.00;;;16.61;57.63
36192;BME280;22233;42.708;23.360;2023-09-30T06:01:39;95881.31;;;16.93;56.42
36192;BME280;22233;42.708;23.360;2023-09-30T06:04:06;95888.38;;;17.06;56.05
36192;BME280;22233;42.708;23.360;2023-09-30T06:06:32;95874.56;;;17.03;55.94
36192;BME280;22233;42.708;23.360;2023-09-30T06:08:58;95892.41;;;17.33;55.79
36192;BME280;22233;42.708;23.360;2023-09-30T06:11:24;95894.34;;;17.33;55.27
36192;BME280;22233;42.708;23.360;2023-09-30T06:13:52;95881.97;;;17.39;55.64
36192;BME280;22233;42.708;23.360;2023-09-30T06:16:20;95892.16;;;17.14;56.22
36192;BME280;22233;42.708;23.360;2023-09-30T06:18:46;95904.84;;;17.43;56.37
36192;BME280;22233;42.708;23.360;2023-09-30T06:21:13;95898.75;;;17.62;54.70
36192;BME280;22233;42.708;23.360;2023-09-30T06:23:40;95887.47;;;17.02;56.53
36192;BME280;22233;42.708;23.360;2023-09-30T06:26:05;95884.47;;;17.44;55.57
36192;BME280;22233;42.708;23.360;2023-09-30T06:28:31;95902.63;;;17.86;54.66
36192;BME280;22233;42.708;23.360;2023-09-30T06:30:58;95902.19;;;18.12;54.95
36192;BME280;22233;42.708;23.360;2023-09-30T06:33:23;95899.00;;;18.10;52.78
36192;BME280;22233;42.708;23.360;2023-09-30T06:35:49;95912.69;;;18.22;53.21
36192;BME280;22233;42.708;23.360;2023-09-30T06:38:21;95898.50;;;18.20;52.95
36192;BME280;22233;42.708;23.360;2023-09-30T06:40:47;95908.31;;;17.81;54.75
36192;BME280;22233;42.708;23.360;2023-09-30T06:43:15;95904.78;;;17.92;53.78
36192;BME280;22233;42.708;23.360;2023-09-30T06:45:44;95903.09;;;18.16;53.27
36192;BME280;22233;42.708;23.360;2023-09-30T06:48:12;95904.66;;;18.29;53.72
36192;BME280;22233;42.708;23.360;2023-09-30T06:50:48;95903.59;;;18.34;53.35
36192;BME280;22233;42.708;23.360;2023-09-30T06:53:15;95911.06;;;18.33;53.35
36192;BME280;22233;42.708;23.360;2023-09-30T06:55:41;95910.59;;;18.31;53.10
36192;BME280;22233;42.708;23.360;2023-09-30T06:58:08;95904.88;;;17.96;53.21
36192;BME280;22233;42.708;23.360;2023-09-30T07:00:34;95918.97;;;18.23;53.53
36192;BME280;22233;42.708;23.360;2023-09-30T07:03:00;95906.56;;;18.41;53.10
36192;BME280;22233;42.708;23.360;2023-09-30T07:05:27;95920.38;;;18.45;52.75
36192;BME280;22233;42.708;23.360;2023-09-30T07:07:53;95912.16;;;18.61;53.03
36192;BME280;22233;42.708;23.360;2023-09-30T07:10:19;95924.75;;;18.90;52.75
36192;BME280;22233;42.708;23.360;2023-09-30T07:12:44;95911.84;;;18.78;52.23
36192;BME280;22233;42.708;23.360;2023-09-30T07:15:10;95914.25;;;19.11;52.04
36192;BME280;22233;42.708;23.360;2023-09-30T07:17:36;95908.75;;;19.27;51.65
36192;BME280;22233;42.708;23.360;2023-09-30T07:20:02;95911.69;;;19.34;51.30
36192;BME280;22233;42.708;23.360;2023-09-30T07:22:30;95914.06;;;19.52;50.49
36192;BME280;22233;42.708;23.360;2023-09-30T07:24:56;95914.00;;;19.68;50.43
36192;BME280;22233;42.708;23.360;2023-09-30T07:27:21;95916.31;;;19.66;50.03
36192;BME280;22233;42.708;23.360;2023-09-30T07:29:47;95907.63;;;19.64;50.48
36192;BME280;22233;42.708;23.360;2023-09-30T07:32:13;95910.88;;;19.85;49.99
36192;BME280;22233;42.708;23.360;2023-09-30T07:34:38;95902.63;;;20.05;48.88
36192;BME280;22233;42.708;23.360;2023-09-30T07:37:04;95898.06;;;19.93;48.90
36192;BME280;22233;42.708;23.360;2023-09-30T07:39:29;95914.16;;;20.30;48.44
36192;BME280;22233;42.708;23.360;2023-09-30T07:41:56;95909.66;;;20.41;48.16
36192;BME280;22233;42.708;23.360;2023-09-30T07:44:21;95909.28;;;20.62;48.38
36192;BME280;22233;42.708;23.360;2023-09-30T07:46:46;95907.88;;;20.91;47.29
36192;BME280;22233;42.708;23.360;2023-09-30T07:49:12;95894.41;;;20.90;45.90
36192;BME280;22233;42.708;23.360;2023-09-30T07:51:37;95908.41;;;21.24;45.22
36192;BME280;22233;42.708;23.360;2023-09-30T07:54:05;95900.25;;;21.31;45.55
36192;BME280;22233;42.708;23.360;2023-09-30T07:56:31;95897.63;;;21.42;45.19
36192;BME280;22233;42.708;23.360;2023-09-30T07:58:56;95903.28;;;21.76;44.77
36192;BME280;22233;42.708;23.360;2023-09-30T08:01:21;95888.66;;;21.75;44.81
36192;BME280;22233;42.708;23.360;2023-09-30T08:03:47;95911.69;;;22.13;44.19
36192;BME280;22233;42.708;23.360;2023-09-30T08:06:13;95913.78;;;21.93;43.35
36192;BME280;22233;42.708;23.360;2023-09-30T08:08:38;95898.81;;;22.24;42.62
36192;BME280;22233;42.708;23.360;2023-09-30T08:11:05;95909.88;;;22.24;43.01
36192;BME280;22233;42.708;23.360;2023-09-30T08:13:34;95897.47;;;22.45;42.39
36192;BME280;22233;42.708;23.360;2023-09-30T08:15:59;95902.03;;;22.64;42.29
36192;BME280;22233;42.708;23.360;2023-09-30T08:18:25;95904.97;;;22.78;41.61
36192;BME280;22233;42.708;23.360;2023-09-30T08:20:50;95902.94;;;22.38;41.40
36192;BME280;22233;42.708;23.360;2023-09-30T08:23:16;95903.94;;;22.97;40.98
36192;BME280;22233;42.708;23.360;2023-09-30T08:25:41;95890.69;;;22.80;39.74
36192;BME280;22233;42.708;23.360;2023-09-30T08:28:07;95907.53;;;23.01;39.88
36192;BME280;22233;42.708;23.360;2023-09-30T08:30:35;95903.91;;;23.35;40.08
36192;BME280;22233;42.708;23.360;2023-09-30T08:33:00;95885.00;;;23.51;39.51
36192;BME280;22233;42.708;23.360;2023-09-30T08:35:26;95899.03;;;23.76;39.99
36192;BME280;22233;42.708;23.360;2023-09-30T08:37:51;95904.06;;;23.60;38.69
36192;BME280;22233;42.708;23.360;2023-09-30T08:40:22;95906.28;;;23.91;38.52
36192;BME280;22233;42.708;23.360;2023-09-30T08:42:51;95892.50;;;24.09;38.34
36192;BME280;22233;42.708;23.360;2023-09-30T08:45:17;95893.00;;;24.33;37.38
36192;BME280;22233;42.708;23.360;2023-09-30T08:47:43;95883.81;;;24.11;37.60
36192;BME280;22233;42.708;23.360;2023-09-30T08:50:10;95884.94;;;23.99;37.79
36192;BME280;22233;42.708;23.360;2023-09-30T08:52:37;95879.91;;;24.30;37.31
36192;BME280;22233;42.708;23.360;2023-09-30T08:55:04;95894.16;;;24.28;37.02
36192;BME280;22233;42.708;23.360;2023-09-30T08:57:30;95876.09;;;23.79;36.49
36192;BME280;22233;42.708;23.360;2023-09-30T08:59:57;95881.84;;;24.22;37.09
36192;BME280;22233;42.708;23.360;2023-09-30T09:02:23;95882.78;;;24.59;36.26
36192;BME280;22233;42.708;23.360;2023-09-30T09:04:49;95868.91;;;24.62;35.50
36192;BME280;22233;42.708;23.360;2023-09-30T09:07:14;95880.81;;;24.63;34.06
36192;BME280;22233;42.708;23.360;2023-09-30T09:09:40;95865.81;;;24.85;33.77
36192;BME280;22233;42.708;23.360;2023-09-30T09:12:06;95871.34;;;24.92;34.02
36192;BME280;22233;42.708;23.360;2023-09-30T09:14:41;95870.59;;;25.28;34.22
36192;BME280;22233;42.708;23.360;2023-09-30T09:17:10;95856.66;;;25.53;34.08
36192;BME280;22233;42.708;23.360;2023-09-30T09:19:35;95872.91;;;25.83;33.45
36192;BME280;22233;42.708;23.360;2023-09-30T09:22:02;95864.16;;;25.85;33.13
36192;BME280;22233;42.708;23.360;2023-09-30T09:24:33;95864.97;;;25.96;33.47
36192;BME280;22233;42.708;23.360;2023-09-30T09:29:35;95864.19;;;25.92;32.24
36192;BME280;22233;42.708;23.360;2023-09-30T09:32:11;95872.94;;;25.69;32.99
36192;BME280;22233;42.708;23.360;2023-09-30T09:34:40;95851.53;;;25.48;32.74
36192;BME280;22233;42.708;23.360;2023-09-30T09:37:13;95859.78;;;25.87;32.54
36192;BME280;22233;42.708;23.360;2023-09-30T09:39:39;95869.63;;;26.21;32.83
36192;BME280;22233;42.708;23.360;2023-09-30T09:42:04;95864.06;;;26.21;31.99
36192;BME280;22233;42.708;23.360;2023-09-30T09:44:33;95850.91;;;26.32;32.00
36192;BME280;22233;42.708;23.360;2023-09-30T09:47:03;95853.56;;;26.50;31.46
36192;BME280;22233;42.708;23.360;2023-09-30T09:49:31;95858.38;;;26.46;31.85
36192;BME280;22233;42.708;23.360;2023-09-30T09:51:58;95859.91;;;26.61;31.92
36192;BME280;22233;42.708;23.360;2023-09-30T09:54:24;95853.25;;;26.34;32.15
36192;BME280;22233;42.708;23.360;2023-09-30T09:56:51;95844.50;;;26.39;31.90
36192;BME280;22233;42.708;23.360;2023-09-30T09:59:18;95837.59;;;26.68;31.72
36192;BME280;22233;42.708;23.360;2023-09-30T10:01:45;95845.88;;;26.79;31.83
36192;BME280;22233;42.708;23.360;2023-09-30T10:04:13;95850.22;;;26.84;31.97
36192;BME280;22233;42.708;23.360;2023-09-30T10:06:40;95836.63;;;26.93;31.72
36192;BME280;22233;42.708;23.360;2023-09-30T10:09:10;95841.19;;;27.18;30.92
36192;BME280;22233;42.708;23.360;2023-09-30T10:11:38;95829.56;;;27.30;30.19
36192;BME280;22233;42.708;23.360;2023-09-30T10:14:05;95826.84;;;27.19;29.23
36192;BME280;22233;42.708;23.360;2023-09-30T10:19:20;95814.25;;;27.49;29.17
36192;BME280;22233;42.708;23.360;2023-09-30T10:25:00;95814.59;;;27.55;28.85
36192;BME280;22233;42.708;23.360;2023-09-30T10:30:14;95815.50;;;27.82;28.07
36192;BME280;22233;42.708;23.360;2023-09-30T10:35:18;95795.75;;;27.66;28.33
36192;BME280;22233;42.708;23.360;2023-09-30T10:37:44;95811.06;;;27.88;27.60
36192;BME280;22233;42.708;23.360;2023-09-30T10:40:25;95808.06;;;28.06;27.58
36192;BME280;22233;42.708;23.360;2023-09-30T10:42:51;95811.88;;;27.89;27.62
36192;BME280;22233;42.708;23.360;2023-09-30T10:45:42;95803.59;;;28.13;27.59
36192;BME280;22233;42.708;23.360;2023-09-30T10:48:32;95794.84;;;28.11;27.68
36192;BME280;22233;42.708;23.360;2023-09-30T10:51:21;95799.13;;;28.19;27.04
36192;BME280;22233;42.708;23.360;2023-09-30T10:53:54;95806.69;;;28.22;26.80
36192;BME280;22233;42.708;23.360;2023-09-30T10:56:32;95788.31;;;28.21;26.68
36192;BME280;22233;42.708;23.360;2023-09-30T10:58:57;95793.22;;;28.44;26.23
36192;BME280;22233;42.708;23.360;2023-09-30T11:01:24;95798.72;;;28.20;26.62
36192;BME280;22233;42.708;23.360;2023-09-30T11:03:55;95786.78;;;28.16;27.08
36192;BME280;22233;42.708;23.360;2023-09-30T11:06:23;95790.69;;;28.22;26.58
36192;BME280;22233;42.708;23.360;2023-09-30T11:08:53;95776.47;;;28.13;27.65
36192;BME280;22233;42.708;23.360;2023-09-30T11:11:33;95788.19;;;28.32;26.97
36192;BME280;22233;42.708;23.360;2023-09-30T11:13:59;95777.22;;;28.17;27.27
36192;BME280;22233;42.708;23.360;2023-09-30T11:16:24;95781.13;;;28.23;27.55
36192;BME280;22233;42.708;23.360;2023-09-30T11:18:54;95779.56;;;28.49;26.86
36192;BME280;22233;42.708;23.360;2023-09-30T11:21:20;95762.69;;;28.29;26.71
36192;BME280;22233;42.708;23.360;2023-09-30T11:23:45;95769.81;;;28.03;27.04
36192;BME280;22233;42.708;23.360;2023-09-30T11:26:11;95765.41;;;28.33;27.33
36192;BME280;22233;42.708;23.360;2023-09-30T11:28:40;95773.84;;;28.60;27.67
36192;BME280;22233;42.708;23.360;2023-09-30T11:31:12;95778.38;;;28.78;27.60
36192;BME280;22233;42.708;23.360;2023-09-30T11:33:53;95762.38;;;28.78;26.53
36192;BME280;22233;42.708;23.360;2023-09-30T11:36:20;95766.47;;;28.43;27.16
36192;BME280;22233;42.708;23.360;2023-09-30T11:38:47;95763.28;;;28.72;27.28
36192;BME280;22233;42.708;23.360;2023-09-30T11:41:14;95767.72;;;28.93;27.42
36192;BME280;22233;42.708;23.360;2023-09-30T11:43:58;95766.59;;;28.90;27.08
36192;BME280;22233;42.708;23.360;2023-09-30T11:46:27;95757.56;;;28.79;27.29
36192;BME280;22233;42.708;23.360;2023-09-30T11:48:57;95753.81;;;28.65;26.97
36192;BME280;22233;42.708;23.360;2023-09-30T11:51:25;95745.91;;;28.84;27.21
36192;BME280;22233;42.708;23.360;2023-09-30T11:53:52;95746.22;;;29.13;26.94
36192;BME280;22233;42.708;23.360;2023-09-30T11:56:19;95743.91;;;29.08;26.87
36192;BME280;22233;42.708;23.360;2023-09-30T11:58:44;95754.56;;;29.40;26.53
36192;BME280;22233;42.708;23.360;2023-09-30T12:01:11;95739.13;;;29.32;26.61
36192;BME280;22233;42.708;23.360;2023-09-30T12:03:39;95737.66;;;29.24;26.66
36192;BME280;22233;42.708;23.360;2023-09-30T12:06:05;95713.94;;;29.32;26.54
36192;BME280;22233;42.708;23.360;2023-09-30T12:08:31;95746.34;;;29.73;26.29
36192;BME280;22233;42.708;23.360;2023-09-30T12:10:57;95739.59;;;29.91;25.60
36192;BME280;22233;42.708;23.360;2023-09-30T12:13:25;95733.72;;;29.85;25.27
36192;BME280;22233;42.708;23.360;2023-09-30T12:15:50;95720.69;;;29.55;25.94
36192;BME280;22233;42.708;23.360;2023-09-30T12:18:18;95733.97;;;29.51;25.71
36192;BME280;22233;42.708;23.360;2023-09-30T12:20:49;95723.69;;;29.64;25.77
36192;BME280;22233;42.708;23.360;2023-09-30T12:23:14;95722.94;;;29.83;25.54
36192;BME280;22233;42.708;23.360;2023-09-30T12:25:39;95723.09;;;29.96;25.47
36192;BME280;22233;42.708;23.360;2023-09-30T12:28:05;95729.53;;;29.93;25.23
36192;BME280;22233;42.708;23.360;2023-09-30T12:30:30;95720.53;;;30.02;25.25
36192;BME280;22233;42.708;23.360;2023-09-30T12:32:57;95717.56;;;29.93;25.70
36192;BME280;22233;42.708;23.360;2023-09-30T12:35:22;95722.09;;;29.86;26.06
36192;BME280;22233;42.708;23.360;2023-09-30T12:37:48;95714.44;;;30.07;25.65
36192;BME280;22233;42.708;23.360;2023-09-30T12:40:13;95711.56;;;30.31;25.19
36192;BME280;22233;42.708;23.360;2023-09-30T12:42:42;95708.22;;;30.52;24.79
36192;BME280;22233;42.708;23.360;2023-09-30T12:45:08;95707.38;;;30.55;25.22
36192;BME280;22233;42.708;23.360;2023-09-30T12:47:34;95699.03;;;30.68;24.44
36192;BME280;22233;42.708;23.360;2023-09-30T12:49:59;95709.91;;;30.50;25.31
36192;BME280;22233;42.708;23.360;2023-09-30T12:52:25;95701.13;;;30.64;25.14
36192;BME280;22233;42.708;23.360;2023-09-30T12:54:50;95692.91;;;30.57;25.20
36192;BME280;22233;42.708;23.360;2023-09-30T12:57:16;95685.44;;;30.66;24.00
36192;BME280;22233;42.708;23.360;2023-09-30T12:59:45;95692.31;;;30.65;24.74
36192;BME280;22233;42.708;23.360;2023-09-30T13:02:15;95676.69;;;30.64;25.07
36192;BME280;22233;42.708;23.360;2023-09-30T13:04:41;95693.09;;;30.50;24.87